Time;durP1;ratioP1;P1;durP2;ratioP2;P2;SDS_P1;SDS_P2;PMS_P1;PMS_P2;Temp;Humidity;BMP_temperature;BMP_pressure;BME280_temperature;BME280_humidity;BME280_pressure;Samples;Min_cycle;Max_cycle;Signal;HPM_P1;HPM_P2
2023/10/08 00:01:43;;;;;;;;;;;;;;;;;;;;;
2023/10/08 00:07:45;;;;;;;39.20;34.60;;;;;;;11.29;100.00;100431.00;224278;1263;139465;-86
2023/10/08 00:13:48;;;;;;;44.80;40.20;;;;;;;11.30;100.00;100430.30;223734;1263;140086;-86
2023/10/08 00:25:50;;;;;;;39.60;35.10;;;;;;;11.29;100.00;100432.19;224376;1263;138747;-85
2023/10/08 00:32:11;;;;;;;36.90;31.80;;;;;;;11.28;100.00;100439.89;223743;1263;140559;-86
2023/10/08 00:38:00;;;;;;;35.50;31.80;;;;;;;11.27;100.00;100437.77;224315;1265;138945;-86
2023/10/08 00:44:12;;;;;;;31.80;25.80;;;;;;;11.26;100.00;100436.00;223827;1263;140120;-86
2023/10/08 01:02:44;;;;;;;40.40;35.20;;;;;;;11.31;100.00;100416.06;223921;1264;140646;-86
2023/10/08 01:08:07;;;;;;;38.80;34.50;;;;;;;11.31;100.00;100439.45;224280;1265;139350;-86
2023/10/08 01:14:09;;;;;;;36.10;32.50;;;;;;;11.28;100.00;100452.80;223835;1263;140396;-86
2023/10/08 01:38:48;;;;;;;22.10;16.10;;;;;;;11.20;100.00;100479.87;224372;1263;139494;-86
2023/10/08 01:44:17;;;;;;;15.80;10.90;;;;;;;11.14;100.00;100511.85;223734;1263;140024;-87
2023/10/08 01:56:18;;;;;;;14.90;10.40;;;;;;;11.09;100.00;100549.20;224272;1263;139677;-85
2023/10/08 02:20:27;;;;;;;19.00;7.60;;;;;;;10.91;100.00;100550.80;223884;1264;140741;-86
2023/10/08 02:26:27;;;;;;;16.40;7.70;;;;;;;10.89;100.00;100583.02;224327;1265;107290;-86
2023/10/08 02:38:22;;;;;;;16.30;6.20;;;;;;;10.79;100.00;100623.80;224327;1263;139744;-87
2023/10/08 02:44:22;;;;;;;19.00;6.50;;;;;;;10.76;100.00;100589.79;223820;1263;140014;-87
2023/10/08 02:50:23;;;;;;;14.50;6.10;;;;;;;10.74;100.00;100604.61;223751;1263;141224;-87
2023/10/08 02:56:24;;;;;;;15.60;5.10;;;;;;;10.67;100.00;100626.08;224237;1266;139041;-87
2023/10/08 03:02:26;;;;;;;15.40;6.20;;;;;;;10.62;100.00;100648.02;223781;1266;140590;-86
2023/10/08 03:14:41;;;;;;;16.00;5.30;;;;;;;10.54;100.00;100673.15;223689;1263;139828;-87
2023/10/08 03:20:50;;;;;;;11.90;4.10;;;;;;;10.53;100.00;100673.14;223757;1263;140452;-87
2023/10/08 03:32:35;;;;;;;10.00;3.80;;;;;;;10.38;100.00;100688.00;223888;1263;140184;-87
2023/10/08 04:14:38;;;;;;;11.00;2.20;;;;;;;9.55;100.00;100766.65;223756;1263;139912;-87
2023/10/08 04:26:39;;;;;;;;;;;;;;;9.26;100.00;100797.66;223466;1269;104709;-88
2023/10/08 04:32:37;;;;;;;9.10;3.30;;;;;;;9.10;100.00;100815.35;223698;1263;126066;-88
2023/10/08 04:38:30;;;;;;;7.00;1.90;;;;;;;8.97;100.00;100830.41;224190;1263;138945;-88
2023/10/08 04:50:31;;;;;;;6.10;1.60;;;;;;;8.67;100.00;100866.13;223728;1263;139895;-87
2023/10/08 04:56:54;;;;;;;5.50;1.30;;;;;;;8.54;100.00;100874.08;224310;1263;138281;-88
2023/10/08 05:16:11;;;;;;;4.20;1.30;;;;;;;8.12;100.00;100909.17;223730;1263;139645;-87
2023/10/08 06:22:26;;;;;;;4.60;1.70;;;;;;;7.15;100.00;101037.59;223864;1266;139607;-90
2023/10/08 06:34:28;;;;;;;6.90;1.80;;;;;;;7.16;100.00;101070.63;223794;1263;139300;-89
2023/10/08 06:40:54;;;;;;;6.00;1.80;;;;;;;7.19;100.00;101084.89;223795;1263;141094;-88
2023/10/08 06:46:55;;;;;;;6.00;1.90;;;;;;;7.24;100.00;101094.17;224333;1263;96019;-89
2023/10/08 06:52:32;;;;;;;5.90;1.80;;;;;;;7.32;100.00;101108.50;223713;1263;139673;-89
2023/10/08 06:58:33;;;;;;;5.50;1.80;;;;;;;7.40;100.00;101116.39;224415;1263;95911;-89
2023/10/08 07:10:35;;;;;;;5.30;2.10;;;;;;;7.61;100.00;101133.13;223805;1263;139956;-89
2023/10/08 07:16:36;;;;;;;5.80;1.90;;;;;;;7.71;100.00;101144.06;224294;1263;140058;-89
2023/10/08 07:22:54;;;;;;;7.10;1.60;;;;;;;7.81;100.00;101151.58;223851;1263;139926;-89
2023/10/08 07:28:43;;;;;;;7.20;1.70;;;;;;;7.92;100.00;101156.12;224356;1266;95979;-89
2023/10/08 07:40:45;;;;;;;4.00;1.40;;;;;;;8.17;100.00;101168.00;223729;1263;139808;-89
2023/10/08 07:46:44;;;;;;;4.00;0.90;;;;;;;8.32;100.00;101173.05;224202;1268;138242;-90
2023/10/08 07:52:44;;;;;;;2.20;0.80;;;;;;;8.47;100.00;101177.67;223646;1264;139505;-89
2023/10/08 07:58:43;;;;;;;2.90;1.10;;;;;;;8.59;100.00;101191.08;224274;1263;138140;-89
2023/10/08 08:10:44;;;;;;;4.80;1.20;;;;;;;8.95;100.00;101206.38;223754;1264;141257;-90
2023/10/08 08:16:45;;;;;;;;;;;;;;;;;;;;;
2023/10/08 08:22:32;;;;;;;;;;;;;;;;;;;;;
2023/10/08 08:28:24;;;;;;;3.20;0.80;;;;;;;9.73;100.00;101229.59;224225;1266;138269;-91
2023/10/08 08:34:19;;;;;;;;;;;;;;;;;;;;;
2023/10/08 08:40:07;;;;;;;3.20;1.00;;;;;;;10.53;100.00;101257.06;223730;1266;140029;-91
2023/10/08 08:45:51;;;;;;;;;;;;;;;;;;;;;
2023/10/08 08:57:36;;;;;;;3.20;1.20;;;;;;;12.20;100.00;101277.34;224181;1263;138652;-89
2023/10/08 09:03:33;;;;;;;4.00;1.00;;;;;;;13.16;98.14;101279.55;223722;1263;139520;-92
2023/10/08 09:15:44;;;;;;;1.90;0.70;;;;;;;14.33;88.24;101287.79;224336;1263;139273;-91
2023/10/08 09:21:47;;;;;;;1.30;0.90;;;;;;;15.00;88.44;101288.90;223716;1267;139932;-89
2023/10/08 09:40:08;;;;;;;5.30;2.10;;;;;;;16.51;79.15;101297.14;224454;1264;138622;-92
2023/10/08 09:45:51;;;;;;;4.40;1.00;;;;;;;17.29;79.24;101296.95;224278;1264;138378;-92
2023/10/08 09:51:52;;;;;;;4.30;1.60;;;;;;;17.70;73.91;101297.30;223847;1263;140734;-95
2023/10/08 09:57:55;;;;;;;4.10;1.40;;;;;;;17.80;68.88;101298.69;224408;1267;138411;-92
2023/10/08 10:10:02;;;;;;;6.40;2.80;;;;;;;17.43;59.52;101306.36;224091;1263;138033;-92
2023/10/08 10:16:03;;;;;;;3.20;1.50;;;;;;;17.53;64.08;101312.88;224198;1267;138323;-91
2023/10/08 10:22:12;;;;;;;1.40;0.80;;;;;;;17.83;62.89;101319.45;223766;1264;139069;-90
2023/10/08 10:34:39;;;;;;;5.30;2.10;;;;;;;17.73;59.95;101323.15;223655;1263;139903;-94
2023/10/08 10:46:41;;;;;;;1.60;1.00;;;;;;;17.66;57.03;101327.30;224375;1264;137769;-89
2023/10/08 10:52:08;;;;;;;;;;;;;;;;;;;;;
2023/10/08 11:04:52;;;;;;;2.30;0.90;;;;;;;17.54;60.84;101323.69;223019;1270;138890;-90
2023/10/08 11:10:30;;;;;;;3.80;0.80;;;;;;;17.28;53.71;101322.54;223751;1264;139435;-90
2023/10/08 11:16:31;;;;;;;2.80;0.90;;;;;;;16.87;56.67;101322.17;224478;1263;137810;-93
2023/10/08 11:22:32;;;;;;;4.80;2.90;;;;;;;16.72;58.06;101322.25;223948;1264;139245;-91
2023/10/08 11:28:34;;;;;;;2.70;1.70;;;;;;;16.67;57.42;101326.40;224415;1263;137876;-90
2023/10/08 11:34:39;;;;;;;;;;;;;;;;;;;;;
2023/10/08 11:40:40;;;;;;;;;;;;;;;;;;;;;
2023/10/08 11:46:36;;;;;;;;;;;;;;;;;;;;;
2023/10/08 11:52:41;;;;;;;4.80;1.50;;;;;;;15.98;56.56;101326.54;223902;1263;139449;-90
2023/10/08 11:59:00;;;;;;;2.10;1.00;;;;;;;15.81;58.09;101332.04;224354;1263;137696;-86
2023/10/08 12:04:41;;;;;;;2.30;1.00;;;;;;;15.57;56.70;101339.05;223856;1263;139766;-90
2023/10/08 12:10:34;;;;;;;3.70;1.60;;;;;;;15.26;58.56;101337.33;223850;1263;139328;-90
2023/10/08 12:22:43;;;;;;;4.00;1.90;;;;;;;14.66;54.89;101348.17;223613;1263;139567;-91
2023/10/08 12:28:44;;;;;;;4.80;2.00;;;;;;;14.42;56.09;101351.43;224301;1264;137769;-88
2023/10/08 12:34:39;;;;;;;;;;;;;;;;;;;;;
2023/10/08 12:46:48;;;;;;;5.20;1.80;;;;;;;14.36;57.61;101348.20;224364;1263;138463;-91
2023/10/08 12:58:48;;;;;;;7.00;2.20;;;;;;;14.28;57.06;101341.39;224412;1263;137719;-90
2023/10/08 13:10:45;;;;;;;7.80;2.40;;;;;;;14.08;59.40;101335.45;223850;1264;141520;-91
2023/10/08 13:16:49;;;;;;;3.00;1.10;;;;;;;14.10;58.22;101331.52;224434;1263;137507;-93
2023/10/08 13:22:29;;;;;;;2.10;1.30;;;;;;;14.12;58.86;101340.79;223918;1264;139620;-93
2023/10/08 13:28:33;;;;;;;3.50;1.50;;;;;;;14.14;58.77;101340.58;224346;1264;137745;-93
2023/10/08 13:34:38;;;;;;;2.90;1.20;;;;;;;14.23;60.05;101339.84;223842;1263;139117;-92
2023/10/08 13:40:32;;;;;;;3.90;1.20;;;;;;;14.25;60.09;101342.70;223878;1264;139378;-93
2023/10/08 13:46:30;;;;;;;2.10;1.10;;;;;;;14.22;58.60;101350.65;224347;1264;138165;-94
2023/10/08 13:52:30;;;;;;;5.30;1.00;;;;;;;14.19;58.47;101356.55;223915;1264;139155;-90
2023/10/08 13:58:30;;;;;;;;;;;;;;;;;;;;;
2023/10/08 14:22:57;;;;;;;2.20;1.00;;;;;;;14.03;61.44;101348.67;223831;1263;139000;-91
2023/10/08 14:46:36;;;;;;;;;;;;;;;;;;;;;
2023/10/08 14:52:46;;;;;;;7.90;2.50;;;;;;;13.45;61.87;101357.97;223871;1264;139227;-90
2023/10/08 15:04:44;;;;;;;4.10;1.40;;;;;;;13.11;62.50;101369.29;224005;1263;139694;-91
2023/10/08 15:10:46;;;;;;;4.80;1.80;;;;;;;12.94;61.96;101373.19;223891;1263;139439;-93
2023/10/08 15:16:51;;;;;;;5.10;1.60;;;;;;;12.75;63.19;101385.48;224422;1263;138063;-91
2023/10/08 15:22:38;;;;;;;;;;;;;;;;;;;;;
2023/10/08 15:28:26;;;;;;;8.50;3.50;;;;;;;12.43;65.07;101396.96;224311;1263;138634;-92
2023/10/08 15:34:26;;;;;;;7.50;2.90;;;;;;;12.32;66.33;101411.58;223859;1264;139345;-92
2023/10/08 15:40:27;;;;;;;8.10;2.70;;;;;;;12.20;66.71;101414.55;223715;1263;139135;-90
2023/10/08 15:46:29;;;;;;;9.40;4.40;;;;;;;12.08;67.64;101412.58;224370;1264;137828;-91
2023/10/08 15:52:14;;;;;;;12.50;4.20;;;;;;;11.96;68.65;101426.98;223718;1263;139074;-90
2023/10/08 15:58:14;;;;;;;11.70;4.60;;;;;;;11.80;68.70;101433.11;224286;1263;138084;-92
2023/10/08 16:04:00;;;;;;;11.20;4.70;;;;;;;11.64;69.10;101449.75;223880;1263;139529;-89
2023/10/08 16:09:51;;;;;;;12.90;6.50;;;;;;;11.48;69.98;101456.76;224294;1263;138605;-89
2023/10/08 16:21:55;;;;;;;10.30;4.80;;;;;;;11.22;71.20;101472.80;223807;1263;139531;-91
2023/10/08 16:27:56;;;;;;;8.70;4.20;;;;;;;11.06;71.98;101478.55;224427;1263;138975;-91
2023/10/08 16:33:41;;;;;;;12.90;6.20;;;;;;;10.96;73.28;101486.30;223939;1263;139288;-91
2023/10/08 16:39:43;;;;;;;11.60;5.60;;;;;;;10.84;73.93;101492.44;224192;1264;138169;-93
2023/10/08 16:45:41;;;;;;;14.70;6.70;;;;;;;10.69;73.89;101488.04;224346;1263;138662;-90
2023/10/08 16:51:32;;;;;;;;;;;;;;;;;;;;;
2023/10/08 17:09:37;;;;;;;8.20;3.70;;;;;;;10.11;78.11;101503.64;224172;1263;138667;-90
2023/10/08 17:15:38;;;;;;;8.90;3.80;;;;;;;9.99;79.25;101504.42;224106;1263;386607;-91
2023/10/08 17:21:39;;;;;;;10.30;4.20;;;;;;;9.88;79.20;101506.29;223704;1263;139607;-89
2023/10/08 17:27:44;;;;;;;9.90;4.30;;;;;;;9.67;80.02;101509.05;224311;1265;138416;-90
2023/10/08 17:33:41;;;;;;;;;;;;;;;;;;;;;
2023/10/08 17:39:45;;;;;;;10.30;4.10;;;;;;;9.39;81.00;101513.02;224243;1265;138688;-91
2023/10/08 17:46:06;;;;;;;12.60;5.00;;;;;;;9.27;81.61;101514.73;224327;1263;138263;-89
2023/10/08 17:51:48;;;;;;;12.00;5.40;;;;;;;9.19;81.81;101518.54;223775;1263;139918;-88
2023/10/08 17:57:49;;;;;;;11.60;4.80;;;;;;;9.11;81.72;101516.39;224426;1263;138288;-90
2023/10/08 18:03:51;;;;;;;11.40;4.50;;;;;;;9.01;82.53;101515.04;223837;1263;139493;-89
2023/10/08 18:09:52;;;;;;;9.80;5.00;;;;;;;8.93;83.47;101515.91;224391;1263;138270;-87
2023/10/08 18:15:53;;;;;;;9.10;4.00;;;;;;;8.80;82.77;101516.01;224266;1263;138633;-91
2023/10/08 18:21:54;;;;;;;7.10;3.00;;;;;;;8.64;83.31;101523.34;223849;1263;139679;-90
2023/10/08 18:27:55;;;;;;;8.10;3.30;;;;;;;8.43;83.48;101519.91;224347;1263;138528;-91
2023/10/08 18:33:54;;;;;;;;;;;;;;;;;;;;;
2023/10/08 18:39:58;;;;;;;11.20;4.40;;;;;;;8.18;84.12;101516.51;224284;1263;138352;-92
2023/10/08 18:45:59;;;;;;;11.30;4.20;;;;;;;8.04;84.31;101522.84;224021;1263;362500;-91
2023/10/08 18:52:08;;;;;;;;;;;;;;;;;;;;;
2023/10/08 18:58:11;;;;;;;18.00;7.00;;;;;;;7.63;84.80;101535.06;224121;1263;138451;-91
2023/10/08 19:04:17;;;;;;;20.80;7.50;;;;;;;7.48;85.25;101532.36;223788;1263;139622;-89
2023/10/08 19:10:19;;;;;;;34.90;12.80;;;;;;;7.27;85.75;101527.33;223742;1262;140123;-91
2023/10/08 19:16:20;;;;;;;45.30;16.50;;;;;;;7.11;86.56;101522.73;224279;1263;138527;-91
2023/10/08 19:22:20;;;;;;;36.80;14.10;;;;;;;6.97;86.82;101524.81;223643;1263;140077;-91
2023/10/08 19:28:21;;;;;;;41.60;16.20;;;;;;;6.78;87.33;101530.77;224216;1262;138412;-91
2023/10/08 19:34:22;;;;;;;32.50;13.80;;;;;;;6.66;88.28;101526.61;223766;1262;140208;-91
2023/10/08 19:40:24;;;;;;;36.50;15.30;;;;;;;6.47;88.34;101532.21;223723;1263;140459;-90
2023/10/08 19:46:25;;;;;;;35.60;15.80;;;;;;;6.35;89.38;101521.95;224200;1263;138649;-90
2023/10/08 19:52:26;;;;;;;25.10;11.50;;;;;;;6.15;89.53;101525.97;223758;1263;140102;-89
2023/10/08 19:58:27;;;;;;;33.40;14.70;;;;;;;6.00;90.70;101526.05;224263;1265;139255;-91
2023/10/08 20:04:28;;;;;;;36.10;15.30;;;;;;;5.87;91.29;101530.40;223721;1263;139965;-91
2023/10/08 20:10:29;;;;;;;32.20;17.30;;;;;;;5.72;91.60;101523.60;223676;1263;139940;-90
2023/10/08 20:16:32;;;;;;;33.60;17.40;;;;;;;5.54;91.88;101527.02;224143;1263;138986;-89
2023/10/08 20:22:33;;;;;;;30.70;14.60;;;;;;;5.44;92.70;101524.31;223595;1263;139989;-89
2023/10/08 20:28:33;;;;;;;36.60;16.50;;;;;;;5.31;93.54;101523.30;224205;1265;138477;-89
2023/10/08 20:40:56;;;;;;;32.00;15.10;;;;;;;4.99;94.09;101523.44;223612;1263;139957;-89
2023/10/08 20:46:31;;;;;;;33.10;14.80;;;;;;;4.90;94.44;101531.42;224187;1263;138503;-87
2023/10/08 20:58:27;;;;;;;;;;;;;;;;;;;;;
2023/10/08 21:04:54;;;;;;;61.40;28.70;;;;;;;4.59;95.86;101511.01;223597;1263;139825;-87
2023/10/08 21:10:41;;;;;;;50.10;24.10;;;;;;;4.52;96.38;101511.95;223465;1263;139898;-86
2023/10/08 21:16:40;;;;;;;54.20;26.50;;;;;;;4.43;96.53;101523.50;224248;1263;139446;-87
2023/10/08 21:22:41;;;;;;;55.60;27.80;;;;;;;4.37;97.13;101523.55;223587;1266;140013;-86
2023/10/08 21:28:34;;;;;;;;;;;;;;;;;;;;;
2023/10/08 21:34:36;;;;;;;60.40;29.10;;;;;;;4.26;97.82;101527.69;223647;1263;139767;-87
2023/10/08 21:40:51;;;;;;;65.60;29.90;;;;;;;4.21;97.95;101514.61;223558;1263;140447;-86
2023/10/08 21:46:26;;;;;;;68.80;32.70;;;;;;;4.17;98.13;101510.95;224068;1263;138915;-85
2023/10/08 21:52:27;;;;;;;61.70;29.50;;;;;;;4.14;98.54;101506.77;223608;1266;140602;-85
2023/10/08 21:58:28;;;;;;;72.30;29.40;;;;;;;4.09;99.16;101502.41;224177;1266;139260;-84
2023/10/08 22:04:22;;;;;;;60.60;27.40;;;;;;;4.06;99.31;101502.04;223708;1263;139641;-84
2023/10/08 22:16:23;;;;;;;52.20;24.50;;;;;;;4.06;100.00;101485.16;224251;1263;138537;-85
2023/10/08 22:22:16;;;;;;;;;;;;;;;;;;;;;
2023/10/08 22:28:19;;;;;;;50.90;22.90;;;;;;;3.94;100.00;101482.05;224111;1267;139512;-86
2023/10/08 22:34:28;;;;;;;42.90;20.80;;;;;;;3.91;100.00;101464.80;223574;1263;140165;-84
2023/10/08 22:40:21;;;;;;;36.10;17.20;;;;;;;3.89;100.00;101453.42;223583;1263;140262;-85
2023/10/08 22:46:45;;;;;;;47.50;21.30;;;;;;;3.86;100.00;101442.44;224138;1263;139260;-85
2023/10/08 22:52:10;;;;;;;54.80;24.90;;;;;;;3.87;100.00;101437.80;223536;1263;140414;-85
2023/10/08 22:58:09;;;;;;;;;;;;;;;;;;;;;
2023/10/08 23:04:12;;;;;;;50.50;23.40;;;;;;;3.86;100.00;101400.39;223362;1263;140635;-87
2023/10/08 23:16:06;;;;;;;32.80;15.30;;;;;;;3.89;100.00;101382.30;224263;1263;138719;-88
2023/10/08 23:22:07;;;;;;;28.20;12.80;;;;;;;3.90;100.00;101384.54;223762;1266;140225;-87
2023/10/08 23:28:08;;;;;;;28.50;11.20;;;;;;;3.95;100.00;101389.23;224163;1263;138694;-88
2023/10/08 23:34:34;;;;;;;25.20;9.80;;;;;;;3.97;100.00;101387.22;223707;1263;139813;-87
2023/10/08 23:40:44;;;;;;;26.70;10.30;;;;;;;3.95;100.00;101377.94;223631;1263;140305;-88
2023/10/08 23:46:21;;;;;;;30.20;13.50;;;;;;;3.97;100.00;101380.36;224128;1267;138650;-88
2023/10/08 23:52:22;;;;;;;26.70;12.50;;;;;;;4.02;100.00;101372.55;223729;1263;140280;-86
2023/10/08 23:58:38;;;;;;;30.20;13.00;;;;;;;4.08;100.00;101357.63;224093;1263;138632;-87
